Etusivu
METAR-TAF:

METAR-TAF

Lentoasemat :

Pincher Creek, Alberta, Kanada

Leveyspiiri: 49-31N, Pituuspiiri: 113-59W, korkeus merenpinnasta: 1190 m

Tämänhetkinen sää

Tämä raportti tehtiin 23 minuuttia sitten, kello 00.00 UTC
Tuuli 14 kn lännestä puuskistuen 19 kn:hen, vaihdellen lännen/lounaan ja lännen/luoteen välillä
Lämpötila 14°C
Kosteus 14%
Ilmanpaine 1017 hPa
Näkyvyys: 14.5 km
Hajonneita pilviä 16000 ft:n korkeudessa
Hajonneita pilviä 18000 ft:n korkeudessa

METAR: CZPC 260000Z AUTO 28014G19KT 240V300 9SM BKN160 BKN180 14/M13 A3002 RMK SLP181 DENSITY ALT 4500FT

Aika: 18:23 (00:23 UTC)


TAF: puuttuu

Säähavainnot ja -ennusteet yli 4000 lentoasemalta (METAR- ja TAF-raportit).

Käytössä olevat sääasemat on merkitty karttaan keltaisilla ja punaisilla pisteillä.

Aseta hiiri pisteen päälle nähdäksesi sääaseman nimen.

Klikkaa sitten nähdäksesi säähavainnot ja -ennusteet.

Kartan vaihtaminen: klikkaa mustalla rastilla varustettuja vihreitä pisteitä, niin voit zoomata sisään; viivalla varustettua vihreää pistettä, niin voit zoomata ulos tai vihreitä nuolia, niin pääset viereisille kartoille.


METAR-TAF: